createdAt,value
2018-04-27T00:01:33.271Z,97978.95
2018-04-27T00:03:59.526Z,97979.94
2018-04-27T00:06:25.746Z,97988.30
2018-04-27T00:08:51.971Z,97989.78
2018-04-27T00:11:18.227Z,97997.55
2018-04-27T00:13:44.471Z,97990.03
2018-04-27T00:16:10.695Z,97982.50
2018-04-27T00:18:36.974Z,97972.20
2018-04-27T00:21:03.207Z,97968.20
2018-04-27T00:23:29.426Z,97963.67
2018-04-27T00:25:55.710Z,97967.91
2018-04-27T00:28:21.939Z,97956.92
2018-04-27T00:30:48.158Z,97955.61
2018-04-27T00:33:14.447Z,97958.84
2018-04-27T00:35:40.663Z,97962.30
2018-04-27T00:38:06.927Z,97957.98
2018-04-27T00:40:33.179Z,97963.69
2018-04-27T00:42:59.403Z,97966.47
2018-04-27T00:45:25.630Z,97963.92
2018-04-27T00:47:51.884Z,97962.61
2018-04-27T00:50:18.102Z,97956.92
2018-04-27T00:52:56.690Z,97962.45
2018-04-27T00:55:22.916Z,97968.21
2018-04-27T00:57:49.238Z,97958.23
2018-04-27T01:00:15.519Z,97959.00
2018-04-27T01:02:41.746Z,97952.68
2018-04-27T01:05:07.974Z,97953.54
2018-04-27T01:07:34.227Z,97952.53
2018-04-27T01:10:00.450Z,97952.30
2018-04-27T01:12:26.666Z,97944.00
2018-04-27T01:14:52.969Z,97937.25
2018-04-27T01:17:19.191Z,97932.25
2018-04-27T01:19:45.414Z,97929.95
2018-04-27T01:22:11.666Z,97930.55
2018-04-27T01:24:37.896Z,97931.17
2018-04-27T01:27:04.158Z,97934.11
2018-04-27T01:29:30.416Z,97941.02
2018-04-27T01:31:56.652Z,97949.16
2018-04-27T01:34:22.871Z,97935.72
2018-04-27T01:36:49.124Z,97944.02
2018-04-27T01:39:15.343Z,97945.84
2018-04-27T01:41:41.627Z,97940.16
2018-04-27T01:44:07.903Z,97948.80
2018-04-27T01:46:34.130Z,97949.41
2018-04-27T01:49:00.346Z,97941.09
2018-04-27T01:51:26.611Z,97945.95
2018-04-27T01:53:52.838Z,97937.28
2018-04-27T01:56:19.062Z,97940.72
2018-04-27T01:58:45.312Z,97948.63
2018-04-27T02:01:11.532Z,97945.96
2018-04-27T02:03:37.759Z,97951.78
2018-04-27T02:06:04.070Z,97950.55
2018-04-27T02:08:30.287Z,97947.34
2018-04-27T02:10:56.546Z,97950.95
2018-04-27T02:13:22.798Z,97947.30
2018-04-27T02:15:49.022Z,97948.53
2018-04-27T02:18:15.250Z,97947.70
2018-04-27T02:20:41.515Z,97948.77
2018-04-27T02:23:07.754Z,97940.63
2018-04-27T02:25:33.979Z,97945.92
2018-04-27T02:28:00.258Z,97946.22
2018-04-27T02:30:26.499Z,97944.77
2018-04-27T02:32:52.719Z,97940.78
2018-04-27T02:35:18.975Z,97936.32
2018-04-27T02:37:45.199Z,97944.23
2018-04-27T02:40:11.455Z,97948.38
2018-04-27T02:42:37.714Z,97946.52
2018-04-27T02:45:03.955Z,97940.86
2018-04-27T02:47:30.174Z,97937.39
2018-04-27T02:49:56.435Z,97935.02
2018-04-27T02:52:22.663Z,97940.70
2018-04-27T02:54:48.906Z,97938.84
2018-04-27T02:57:15.157Z,97939.77
2018-04-27T02:59:41.378Z,97940.90
2018-04-27T03:02:07.599Z,97936.53
2018-04-27T03:04:33.847Z,97931.91
2018-04-27T03:07:00.067Z,97932.22
2018-04-27T03:09:26.294Z,97928.37
2018-04-27T03:11:52.546Z,97926.12
2018-04-27T03:14:18.766Z,97927.81
2018-04-27T03:16:44.995Z,97925.80
2018-04-27T03:19:11.270Z,97917.73
2018-04-27T03:21:37.491Z,97918.27
2018-04-27T03:24:03.734Z,97922.86
2018-04-27T03:26:29.988Z,97923.02
2018-04-27T03:28:56.207Z,97926.39
2018-04-27T03:31:22.442Z,97924.55
2018-04-27T03:33:48.690Z,97931.97
2018-04-27T03:36:14.914Z,97935.72
2018-04-27T03:38:41.138Z,97927.98
2018-04-27T03:41:07.399Z,97934.49
2018-04-27T03:43:33.619Z,97927.64
2018-04-27T03:45:59.859Z,97931.46
2018-04-27T03:48:26.109Z,97926.86
2018-04-27T03:50:52.339Z,97933.44
2018-04-27T03:53:18.592Z,97923.32
2018-04-27T03:55:44.847Z,97924.70
2018-04-27T03:58:11.071Z,97922.77
2018-04-27T04:00:49.782Z,97924.38
2018-04-27T04:03:28.263Z,97916.70
2018-04-27T04:05:54.519Z,97915.38
2018-04-27T04:08:20.754Z,97912.16
2018-04-27T04:10:46.966Z,97915.59
2018-04-27T04:13:13.214Z,97913.00
2018-04-27T04:15:39.475Z,97920.30
2018-04-27T04:18:05.766Z,97918.48
2018-04-27T04:20:32.023Z,97918.49
2018-04-27T04:22:58.251Z,97922.74
2018-04-27T04:25:24.567Z,97920.31
2018-04-27T04:27:50.890Z,97918.27
2018-04-27T04:30:17.124Z,97917.06
2018-04-27T04:32:43.364Z,97922.59
2018-04-27T04:35:09.651Z,97918.92
2018-04-27T04:37:35.879Z,97917.09
2018-04-27T04:40:02.187Z,97915.49
2018-04-27T04:42:28.386Z,97921.02
2018-04-27T04:44:54.607Z,97917.12
2018-04-27T04:47:20.857Z,97919.11
2018-04-27T04:49:47.148Z,97917.12
2018-04-27T04:52:13.384Z,97919.43
2018-04-27T04:54:39.643Z,97913.44
2018-04-27T04:57:05.895Z,97918.13
2018-04-27T04:59:32.123Z,97912.61
2018-04-27T05:01:58.346Z,97921.59
2018-04-27T05:04:24.615Z,97920.43
2018-04-27T05:06:50.847Z,97921.20
2018-04-27T05:09:17.058Z,97920.89
2018-04-27T05:11:43.319Z,97920.00
2018-04-27T05:14:09.539Z,97927.83
2018-04-27T05:16:35.799Z,97929.58
2018-04-27T05:19:02.103Z,97928.03
2018-04-27T05:21:28.335Z,97923.94
2018-04-27T05:23:54.555Z,97928.37
2018-04-27T05:26:20.849Z,97924.22
2018-04-27T05:28:47.091Z,97924.97
2018-04-27T05:31:23.610Z,97924.66
2018-04-27T05:33:49.888Z,97923.47
2018-04-27T05:36:16.154Z,97922.84
2018-04-27T05:38:42.463Z,97927.94
2018-04-27T05:41:08.751Z,97924.66
2018-04-27T05:43:35.095Z,97921.06
2018-04-27T05:46:01.435Z,97911.95
2018-04-27T05:48:27.713Z,97911.43
2018-04-27T05:50:53.990Z,97909.92
2018-04-27T05:53:20.299Z,97911.70
2018-04-27T05:55:46.572Z,97912.31
2018-04-27T05:58:12.859Z,97910.06
2018-04-27T06:00:39.171Z,97904.61
2018-04-27T06:03:05.444Z,97902.68
2018-04-27T06:05:31.694Z,97907.82
2018-04-27T06:07:57.959Z,97902.17
2018-04-27T06:10:24.234Z,97904.66
2018-04-27T06:12:51.287Z,97905.08
2018-04-27T06:15:17.583Z,97908.27
2018-04-27T06:17:43.834Z,97905.84
2018-04-27T06:20:10.062Z,97904.06
2018-04-27T06:22:36.351Z,97903.94
2018-04-27T06:25:02.621Z,97897.64
2018-04-27T06:27:28.886Z,97894.38
2018-04-27T06:29:55.185Z,97889.80
2018-04-27T06:32:21.431Z,97889.32
2018-04-27T06:34:47.666Z,97880.00
2018-04-27T06:37:13.951Z,97875.61
2018-04-27T06:39:40.203Z,97870.41
2018-04-27T06:42:06.479Z,97871.02
2018-04-27T06:44:32.775Z,97869.59
2018-04-27T06:46:59.047Z,97866.45
2018-04-27T06:49:25.327Z,97868.72
2018-04-27T06:51:51.631Z,97866.91
2018-04-27T06:54:17.887Z,97867.19
2018-04-27T06:56:44.163Z,97857.61
2018-04-27T06:59:10.470Z,97859.14
2018-04-27T07:01:36.763Z,97857.80
2018-04-27T07:04:03.035Z,97856.63
2018-04-27T07:06:29.347Z,97867.51
2018-04-27T07:08:55.620Z,97866.73
2018-04-27T07:11:21.890Z,97865.05
2018-04-27T07:13:48.219Z,97858.97
2018-04-27T07:16:14.439Z,97862.41
2018-04-27T07:18:40.663Z,97861.26
2018-04-27T07:21:06.930Z,97863.80
2018-04-27T07:23:33.208Z,97860.92
2018-04-27T07:25:59.517Z,97863.59
2018-04-27T07:28:25.730Z,97855.45
2018-04-27T07:30:51.975Z,97855.94
2018-04-27T07:33:18.224Z,97857.69
2018-04-27T07:35:44.490Z,97855.78
2018-04-27T07:38:10.760Z,97859.23
2018-04-27T07:40:36.990Z,97858.76
2018-04-27T07:43:03.291Z,97857.35
2018-04-27T07:45:29.579Z,97853.05
2018-04-27T07:47:55.850Z,97855.80
2018-04-27T07:50:22.180Z,97852.51
2018-04-27T07:52:48.422Z,97850.58
2018-04-27T07:55:14.789Z,97849.69
2018-04-27T07:57:41.055Z,97843.35
2018-04-27T08:00:07.375Z,97847.03
2018-04-27T08:02:33.654Z,97848.56
2018-04-27T08:05:00.005Z,97845.52
2018-04-27T08:07:26.278Z,97844.91
2018-04-27T08:09:52.559Z,97842.61
2018-04-27T08:12:18.859Z,97848.45
2018-04-27T08:14:45.162Z,97844.00
2018-04-27T08:17:11.435Z,97849.51
2018-04-27T08:19:37.744Z,97844.74
2018-04-27T08:22:04.011Z,97845.05
2018-04-27T08:24:30.306Z,97841.89
2018-04-27T08:26:56.610Z,97837.41
2018-04-27T08:29:22.882Z,97834.13
2018-04-27T08:31:49.149Z,97833.69
2018-04-27T08:34:15.459Z,97838.25
2018-04-27T08:36:41.714Z,97837.94
2018-04-27T08:39:07.950Z,97839.80
2018-04-27T08:41:34.223Z,97839.31
2018-04-27T08:44:00.482Z,97843.23
2018-04-27T08:46:28.695Z,97833.88
2018-04-27T08:48:55.020Z,97823.77
2018-04-27T08:51:21.303Z,97814.00
2018-04-27T08:53:47.608Z,97811.27
2018-04-27T08:56:13.915Z,97813.02
2018-04-27T08:58:40.190Z,97816.16
2018-04-27T09:01:06.454Z,97811.21
2018-04-27T09:03:32.747Z,97812.06
2018-04-27T09:05:59.023Z,97803.11
2018-04-27T09:08:25.287Z,97808.02
2018-04-27T09:10:51.632Z,97806.60
2018-04-27T09:13:17.915Z,97800.79
2018-04-27T09:15:44.147Z,97801.27
2018-04-27T09:18:10.431Z,97794.05
2018-04-27T09:20:36.662Z,97791.77
2018-04-27T09:23:02.912Z,97789.75
2018-04-27T09:25:29.213Z,97791.15
2018-04-27T09:27:55.487Z,97787.66
2018-04-27T09:30:21.768Z,97788.00
2018-04-27T09:32:48.063Z,97780.05
2018-04-27T09:35:14.337Z,97778.11
2018-04-27T09:37:40.588Z,97768.59
2018-04-27T09:40:06.887Z,97773.16
2018-04-27T09:42:33.171Z,97765.19
2018-04-27T09:44:59.431Z,97756.81
2018-04-27T09:47:25.723Z,97753.80
2018-04-27T09:49:51.999Z,97755.61
2018-04-27T09:52:18.271Z,97752.84
2018-04-27T09:54:44.536Z,97750.17
2018-04-27T09:57:10.795Z,97736.84
2018-04-27T09:59:37.154Z,97733.52
2018-04-27T10:02:03.460Z,97731.51
2018-04-27T10:04:29.736Z,97727.75
2018-04-27T10:06:56.015Z,97716.15
2018-04-27T10:09:22.315Z,97715.35
2018-04-27T10:11:48.619Z,97711.56
2018-04-27T10:14:14.922Z,97710.14
2018-04-27T10:16:41.242Z,97694.98
2018-04-27T10:19:07.487Z,97691.91
2018-04-27T10:21:33.731Z,97683.21
2018-04-27T10:24:00.030Z,97689.06
2018-04-27T10:26:26.307Z,97686.73
2018-04-27T10:28:52.555Z,97687.80
2018-04-27T10:31:18.859Z,97674.16
2018-04-27T10:33:45.119Z,97675.59
2018-04-27T10:36:11.399Z,97668.94
2018-04-27T10:38:37.714Z,97668.27
2018-04-27T10:41:03.987Z,97669.23
2018-04-27T10:43:30.250Z,97662.28
2018-04-27T10:45:56.571Z,97650.48
2018-04-27T10:48:22.844Z,97647.88
2018-04-27T10:50:49.147Z,97636.55
2018-04-27T10:53:15.454Z,97633.39
2018-04-27T10:55:41.763Z,97627.44
2018-04-27T10:58:08.040Z,97630.33
2018-04-27T11:00:34.358Z,97629.09
2018-04-27T11:03:00.654Z,97633.89
2018-04-27T11:05:26.939Z,97631.30
2018-04-27T11:07:53.307Z,97616.78
2018-04-27T11:10:19.600Z,97616.33
2018-04-27T11:12:45.870Z,97615.23
2018-04-27T11:15:12.191Z,97605.24
2018-04-27T11:17:38.487Z,97601.80
2018-04-27T11:20:04.758Z,97605.57
2018-04-27T11:22:31.063Z,97596.22
2018-04-27T11:24:57.339Z,97593.67
2018-04-27T11:27:23.611Z,97601.25
2018-04-27T11:29:49.874Z,97595.48
2018-04-27T11:32:16.099Z,97592.76
2018-04-27T11:34:42.359Z,97594.03
2018-04-27T11:37:08.671Z,97590.03
2018-04-27T11:39:34.924Z,97590.06
2018-04-27T11:42:01.151Z,97583.45
2018-04-27T11:44:27.414Z,97583.86
2018-04-27T11:46:53.683Z,97585.27
2018-04-27T11:49:20.013Z,97572.14
2018-04-27T11:51:46.324Z,97568.40
2018-04-27T11:54:12.590Z,97568.34
2018-04-27T11:56:38.821Z,97570.08
2018-04-27T11:59:05.127Z,97564.34
2018-04-27T12:01:31.434Z,97559.17
2018-04-27T12:03:57.750Z,97551.30
2018-04-27T12:06:24.087Z,97552.32
2018-04-27T12:08:50.411Z,97555.03
2018-04-27T12:11:16.723Z,97552.84
2018-04-27T12:13:43.036Z,97561.87
2018-04-27T12:16:09.359Z,97553.93
2018-04-27T12:18:35.639Z,97550.86
2018-04-27T12:21:01.911Z,97558.88
2018-04-27T12:23:28.171Z,97557.11
2018-04-27T12:25:54.461Z,97550.12
2018-04-27T12:28:20.747Z,97556.34
2018-04-27T12:30:47.003Z,97540.66
2018-04-27T12:33:13.229Z,97542.85
2018-04-27T12:35:39.489Z,97537.06
2018-04-27T12:38:05.766Z,97542.08
2018-04-27T12:40:32.038Z,97537.34
2018-04-27T12:42:58.367Z,97530.17
2018-04-27T12:45:24.641Z,97516.53
2018-04-27T12:47:50.918Z,97508.23
2018-04-27T12:50:17.230Z,97512.88
2018-04-27T12:52:43.539Z,97516.70
2018-04-27T12:55:09.822Z,97487.55
2018-04-27T12:57:36.175Z,97488.45
2018-04-27T13:00:02.443Z,97483.19
2018-04-27T13:02:28.695Z,97477.72
2018-04-27T13:04:54.962Z,97486.27
2018-04-27T13:07:21.261Z,97475.66
2018-04-27T13:09:47.538Z,97477.05
2018-04-27T13:12:13.866Z,97478.02
2018-04-27T13:14:40.158Z,97463.22
2018-04-27T13:17:06.447Z,97461.37
2018-04-27T13:19:32.873Z,97467.76
2018-04-27T13:21:59.108Z,97458.75
2018-04-27T13:24:25.347Z,97462.80
2018-04-27T13:26:51.648Z,97454.58
2018-04-27T13:29:17.923Z,97455.57
2018-04-27T13:31:44.167Z,97450.27
2018-04-27T13:34:10.433Z,97448.12
2018-04-27T13:36:36.703Z,97451.20
2018-04-27T13:39:03.020Z,97445.65
2018-04-27T13:41:29.315Z,97434.41
2018-04-27T13:43:55.570Z,97435.19
2018-04-27T13:46:21.867Z,97431.66
2018-04-27T13:48:48.155Z,97433.86
2018-04-27T13:51:14.428Z,97418.63
2018-04-27T13:53:40.741Z,97419.97
2018-04-27T13:56:07.064Z,97416.39
2018-04-27T13:58:33.347Z,97403.75
2018-04-27T14:00:59.718Z,97396.53
2018-04-27T14:03:26.062Z,97390.97
2018-04-27T14:05:52.359Z,97391.06
2018-04-27T14:08:18.651Z,97379.33
2018-04-27T14:10:44.978Z,97378.15
2018-04-27T14:13:11.268Z,97374.13
2018-04-27T14:15:37.548Z,97367.06
2018-04-27T14:18:03.881Z,97367.43
2018-04-27T14:20:30.167Z,97363.58
2018-04-27T14:22:56.410Z,97362.88
2018-04-27T14:25:22.711Z,97359.97
2018-04-27T14:27:48.982Z,97354.94
2018-04-27T14:30:15.258Z,97342.95
2018-04-27T14:32:41.539Z,97338.33
2018-04-27T14:35:07.771Z,97335.12
2018-04-27T14:37:34.018Z,97333.86
2018-04-27T14:40:00.278Z,97335.23
2018-04-27T14:42:26.532Z,97335.36
2018-04-27T14:44:52.779Z,97334.03
2018-04-27T14:47:19.071Z,97329.27
2018-04-27T14:49:45.311Z,97333.98
2018-04-27T14:52:11.555Z,97333.37
2018-04-27T14:54:37.867Z,97330.25
2018-04-27T14:57:04.143Z,97327.50
2018-04-27T14:59:30.480Z,97326.58
2018-04-27T15:01:56.990Z,97320.18
2018-04-27T15:04:23.238Z,97321.55
2018-04-27T15:06:49.506Z,97313.34
2018-04-27T15:09:15.816Z,97316.03
2018-04-27T15:11:42.082Z,97318.88
2018-04-27T15:14:08.383Z,97323.95
2018-04-27T15:16:34.747Z,97324.30
2018-04-27T15:19:01.015Z,97314.63
2018-04-27T15:21:27.256Z,97314.28
2018-04-27T15:23:53.566Z,97308.36
2018-04-27T15:26:19.850Z,97320.66
2018-04-27T15:28:46.166Z,97301.92
2018-04-27T15:31:12.447Z,97303.17
2018-04-27T15:33:38.686Z,97316.00
2018-04-27T15:36:04.995Z,97297.06
2018-04-27T15:38:31.311Z,97295.14
2018-04-27T15:40:57.635Z,97305.30
2018-04-27T15:43:23.923Z,97293.08
2018-04-27T15:45:50.255Z,97292.33
2018-04-27T15:48:16.536Z,97288.02
2018-04-27T16:03:34.587Z,97246.77
2018-04-27T16:06:00.891Z,97251.14
2018-04-27T16:08:27.178Z,97251.06
2018-04-27T16:10:53.483Z,97242.87
2018-04-27T16:13:25.559Z,97245.98
2018-04-27T16:15:51.835Z,97236.13
2018-04-27T16:18:18.148Z,97237.09
2018-04-27T16:20:44.435Z,97235.88
2018-04-27T16:23:10.702Z,97224.67
2018-04-27T16:25:37.010Z,97230.75
2018-04-27T16:28:03.325Z,97215.20
2018-04-27T16:30:29.592Z,97220.66
2018-04-27T16:32:55.901Z,97211.22
2018-04-27T16:35:22.184Z,97216.57
2018-04-27T16:37:48.459Z,97218.97
2018-04-27T16:40:14.800Z,97218.28
2018-04-27T16:42:41.060Z,97215.17
2018-04-27T16:45:07.352Z,97216.30
2018-04-27T16:47:33.865Z,97209.36
2018-04-27T16:50:00.346Z,97215.37
2018-04-27T16:52:26.854Z,97205.30
2018-04-27T16:54:53.215Z,97197.78
2018-04-27T16:57:19.817Z,97195.62
2018-04-27T16:59:46.564Z,97196.41
2018-04-27T17:02:12.937Z,97194.21
2018-04-27T17:04:39.616Z,97188.50
2018-04-27T17:07:05.913Z,97193.52
2018-04-27T17:09:32.590Z,97190.00
2018-04-27T17:11:58.929Z,97189.64
2018-04-27T17:14:25.268Z,97191.27
2018-04-27T17:16:51.611Z,97190.41
2018-04-27T17:19:17.977Z,97184.28
2018-04-27T17:21:44.227Z,97184.85
2018-04-27T17:24:10.567Z,97194.94
2018-04-27T17:26:36.868Z,97191.20
2018-04-27T17:29:03.176Z,97188.56
2018-04-27T17:31:29.507Z,97194.22
2018-04-27T17:33:55.814Z,97196.22
2018-04-27T17:36:22.118Z,97194.38
2018-04-27T17:38:48.450Z,97190.70
2018-04-27T17:41:14.767Z,97189.38
2018-04-27T17:43:41.107Z,97194.16
2018-04-27T17:46:07.529Z,97193.15
2018-04-27T17:48:33.867Z,97188.53
2018-04-27T17:51:00.139Z,97187.52
2018-04-27T17:53:26.787Z,97184.49
2018-04-27T17:55:53.260Z,97183.92
2018-04-27T17:58:19.620Z,97180.41
2018-04-27T18:00:45.998Z,97184.47
2018-04-27T18:03:12.497Z,97179.33
2018-04-27T18:05:38.942Z,97179.83
2018-04-27T18:08:05.668Z,97177.95
2018-04-27T18:10:32.002Z,97182.31
2018-04-27T18:12:58.473Z,97181.41
2018-04-27T18:15:24.859Z,97188.42
2018-04-27T18:17:51.251Z,97187.63
2018-04-27T18:20:18.059Z,97192.66
2018-04-27T18:22:44.443Z,97192.66
2018-04-27T18:25:10.725Z,97188.87
2018-04-27T18:27:37.035Z,97205.68
2018-04-27T18:30:03.426Z,97207.47
2018-04-27T18:32:29.699Z,97195.08
2018-04-27T18:34:56.033Z,97201.05
2018-04-27T18:37:22.439Z,97199.78
2018-04-27T18:39:50.360Z,97203.03
2018-04-27T18:42:16.697Z,97197.69
2018-04-27T18:44:43.128Z,97192.40
2018-04-27T18:47:09.641Z,97196.87
2018-04-27T18:49:35.996Z,97195.39
2018-04-27T18:52:02.350Z,97209.27
2018-04-27T18:54:28.707Z,97206.63
2018-04-27T18:56:55.217Z,97209.06
2018-04-27T18:59:22.549Z,97209.03
2018-04-27T19:01:48.941Z,97207.38
2018-04-27T19:04:15.414Z,97206.55
2018-04-27T19:06:41.921Z,97204.16
2018-04-27T19:09:08.228Z,97207.94
2018-04-27T19:11:34.733Z,97202.89
2018-04-27T19:14:01.111Z,97196.50
2018-04-27T19:16:27.540Z,97196.80
2018-04-27T19:18:55.701Z,97202.80
2018-04-27T19:21:22.036Z,97209.46
2018-04-27T19:23:48.388Z,97210.48
2018-04-27T19:26:14.826Z,97202.28
2018-04-27T19:28:41.163Z,97201.78
2018-04-27T19:31:07.482Z,97203.44
2018-04-27T19:33:33.759Z,97205.29
2018-04-27T19:36:00.189Z,97199.91
2018-04-27T19:38:26.501Z,97196.63
2018-04-27T19:40:52.811Z,97190.16
2018-04-27T19:43:19.258Z,97196.70
2018-04-27T19:45:45.559Z,97190.23
2018-04-27T19:48:11.962Z,97193.67
2018-04-27T19:50:38.307Z,97193.90
2018-04-27T19:53:04.643Z,97188.97
2018-04-27T19:55:30.947Z,97184.17
2018-04-27T19:57:57.268Z,97192.19
2018-04-27T20:00:25.528Z,97192.42
2018-04-27T20:02:51.879Z,97179.14
2018-04-27T20:05:18.219Z,97181.11
2018-04-27T20:07:44.507Z,97177.75
2018-04-27T20:10:15.587Z,97184.66
2018-04-27T20:12:41.899Z,97189.41
2018-04-27T20:15:08.254Z,97184.26
2018-04-27T20:17:36.472Z,97185.91
2018-04-27T20:20:17.682Z,97183.80
2018-04-27T20:22:48.089Z,97190.75
2018-04-27T20:25:14.371Z,97182.30
2018-04-27T20:27:40.890Z,97181.25
2018-04-27T20:30:07.174Z,97181.64
2018-04-27T20:32:33.469Z,97179.94
2018-04-27T20:35:00.126Z,97185.18
2018-04-27T20:37:26.758Z,97183.44
2018-04-27T20:39:53.299Z,97180.28
2018-04-27T20:42:20.751Z,97174.02
2018-04-27T20:44:47.078Z,97169.37
2018-04-27T20:47:13.643Z,97164.43
2018-04-27T20:49:40.774Z,97162.73
2018-04-27T20:52:07.521Z,97161.33
2018-04-27T20:54:34.197Z,97164.88
2018-04-27T20:57:00.835Z,97170.36
2018-04-27T20:59:27.151Z,97168.08
2018-04-27T21:01:53.959Z,97158.23
2018-04-27T21:04:20.885Z,97163.00
2018-04-27T21:06:47.624Z,97168.06
2018-04-27T21:09:15.294Z,97169.30
2018-04-27T21:11:41.690Z,97168.31
2018-04-27T21:14:08.286Z,97169.96
2018-04-27T21:16:34.737Z,97156.52
2018-04-27T21:19:01.051Z,97157.12
2018-04-27T21:21:27.537Z,97156.73
2018-04-27T21:23:53.838Z,97162.16
2018-04-27T21:26:22.976Z,97156.34
2018-04-27T21:28:49.245Z,97156.26
2018-04-27T21:31:19.059Z,97153.09
2018-04-27T21:33:55.468Z,97150.44
2018-04-27T21:36:40.756Z,97147.91
2018-04-27T21:39:16.558Z,97146.16
2018-04-27T21:41:57.045Z,97146.51
2018-04-27T21:44:37.043Z,97145.77
2018-04-27T21:47:08.202Z,97139.04
2018-04-27T21:49:39.743Z,97139.06
2018-04-27T21:52:14.855Z,97138.43
2018-04-27T21:54:53.280Z,97142.98
2018-04-27T22:11:31.637Z,97138.95
2018-04-27T22:19:15.444Z,97138.08
2018-04-27T22:21:53.037Z,97141.39
2018-04-27T22:24:31.712Z,97139.88
2018-04-27T22:27:29.915Z,97141.02
2018-04-27T22:32:41.928Z,97140.77
2018-04-27T22:38:34.959Z,97142.79
2018-04-27T22:41:08.549Z,97146.46
2018-04-27T22:43:44.350Z,97150.89
2018-04-27T22:46:18.311Z,97144.03
2018-04-27T22:48:50.416Z,97133.39
2018-04-27T22:51:30.379Z,97138.02
2018-04-27T22:54:00.317Z,97133.37
2018-04-27T22:59:34.507Z,97139.00
2018-04-27T23:02:02.935Z,97138.66
2018-04-27T23:07:10.564Z,97140.55
2018-04-27T23:09:42.005Z,97134.60
2018-04-27T23:14:54.237Z,97128.73
2018-04-27T23:17:20.534Z,97131.20
2018-04-27T23:19:55.782Z,97130.18
2018-04-27T23:22:37.516Z,97128.14
2018-04-27T23:25:12.098Z,97126.45
2018-04-27T23:27:43.151Z,97128.56
2018-04-27T23:30:12.921Z,97130.68
2018-04-27T23:32:41.536Z,97126.73
2018-04-27T23:35:08.446Z,97124.79
2018-04-27T23:40:14.171Z,97121.23
2018-04-27T23:42:47.176Z,97120.45
2018-04-27T23:45:26.842Z,97115.45
2018-04-27T23:50:58.411Z,97125.00
2018-04-27T23:56:19.512Z,97115.75
